createdAt,value
2023-05-20T00:00:01.522Z,5.10
2023-05-20T00:02:28.830Z,4.70
2023-05-20T00:04:56.019Z,5.77
2023-05-20T00:07:23.165Z,5.20
2023-05-20T00:09:50.129Z,5.10
2023-05-20T00:12:17.036Z,6.07
2023-05-20T00:14:43.927Z,5.70
2023-05-20T00:17:10.784Z,5.20
2023-05-20T00:19:37.667Z,5.43
2023-05-20T00:22:05.448Z,6.03
2023-05-20T00:24:32.299Z,5.60
2023-05-20T00:26:59.172Z,5.40
2023-05-20T00:29:26.049Z,5.50
2023-05-20T00:31:53.037Z,6.20
2023-05-20T00:34:20.684Z,5.80
2023-05-20T00:36:47.574Z,6.17
2023-05-20T00:39:14.399Z,5.93
2023-05-20T00:41:41.285Z,7.97
2023-05-20T00:44:08.247Z,5.57
2023-05-20T00:46:36.097Z,6.43
2023-05-20T00:49:03.119Z,6.43
2023-05-20T00:51:30.101Z,6.53
2023-05-20T00:53:57.652Z,7.27
2023-05-20T00:56:25.199Z,8.93
2023-05-20T00:58:52.354Z,6.30
2023-05-20T01:01:19.295Z,7.50
2023-05-20T01:03:46.900Z,6.73
2023-05-20T01:06:13.865Z,6.80
2023-05-20T01:08:40.959Z,7.37
2023-05-20T01:11:21.572Z,7.93
2023-05-20T01:13:55.754Z,7.13
2023-05-20T01:16:24.927Z,6.83
2023-05-20T01:18:56.079Z,7.63
2023-05-20T01:21:23.776Z,7.07
2023-05-20T01:23:51.133Z,7.07
2023-05-20T01:26:18.987Z,6.30
2023-05-20T01:28:45.958Z,7.13
2023-05-20T01:31:22.921Z,7.80
2023-05-20T01:33:58.056Z,8.13
2023-05-20T01:36:27.563Z,6.57
2023-05-20T01:38:54.949Z,7.67
2023-05-20T01:41:25.230Z,7.20
2023-05-20T01:43:52.376Z,7.03
2023-05-20T01:46:19.361Z,7.53
2023-05-20T01:48:46.227Z,7.53
2023-05-20T01:51:13.111Z,8.30
2023-05-20T01:53:39.986Z,8.17
2023-05-20T01:56:06.954Z,7.60
2023-05-20T01:58:33.978Z,8.80
2023-05-20T02:01:01.640Z,8.03
2023-05-20T02:03:28.669Z,8.40
2023-05-20T02:05:55.688Z,7.60
2023-05-20T02:08:22.629Z,8.33
2023-05-20T02:10:49.686Z,8.13
2023-05-20T02:13:16.743Z,7.67
2023-05-20T02:15:43.693Z,8.40
2023-05-20T02:18:12.472Z,8.20
2023-05-20T02:20:39.578Z,7.73
2023-05-20T02:23:06.626Z,7.37
2023-05-20T02:25:33.817Z,8.83
2023-05-20T02:28:00.932Z,7.77
2023-05-20T02:30:27.940Z,7.70
2023-05-20T02:32:54.849Z,8.67
2023-05-20T02:35:21.808Z,8.57
2023-05-20T02:37:48.658Z,8.50
2023-05-20T02:40:15.623Z,8.13
2023-05-20T02:42:42.512Z,8.00
2023-05-20T02:45:09.817Z,7.90
2023-05-20T02:47:36.716Z,8.37
2023-05-20T02:50:04.053Z,8.67
2023-05-20T02:52:30.923Z,9.07
2023-05-20T02:54:58.472Z,8.43
2023-05-20T02:57:27.284Z,8.00
2023-05-20T02:59:56.336Z,8.33
2023-05-20T03:02:23.671Z,8.27
2023-05-20T03:04:50.713Z,9.27
2023-05-20T03:07:19.705Z,8.37
2023-05-20T03:09:46.872Z,7.93
2023-05-20T03:12:13.791Z,9.70
2023-05-20T03:14:40.657Z,8.93
2023-05-20T03:17:09.049Z,7.87
2023-05-20T03:19:36.139Z,8.40
2023-05-20T03:22:03.047Z,8.63
2023-05-20T03:24:30.085Z,8.43
2023-05-20T03:26:57.073Z,9.23
2023-05-20T03:29:24.006Z,8.53
2023-05-20T03:31:51.242Z,8.60
2023-05-20T03:34:18.194Z,11.33
2023-05-20T03:36:45.210Z,9.13
2023-05-20T03:39:12.231Z,10.90
2023-05-20T03:41:39.137Z,8.63
2023-05-20T03:44:06.246Z,8.83
2023-05-20T03:46:34.356Z,9.03
2023-05-20T03:49:04.579Z,9.80
2023-05-20T03:51:31.525Z,8.93
2023-05-20T03:53:58.401Z,8.90
2023-05-20T03:56:26.392Z,8.97
2023-05-20T03:58:53.569Z,9.23
2023-05-20T04:01:21.242Z,9.63
2023-05-20T04:03:48.228Z,8.77
2023-05-20T04:06:15.216Z,9.63
2023-05-20T04:08:42.365Z,9.03
2023-05-20T04:11:09.269Z,9.13
2023-05-20T04:13:36.148Z,9.93
2023-05-20T04:16:05.339Z,9.07
2023-05-20T04:18:32.231Z,9.23
2023-05-20T04:21:01.942Z,8.83
2023-05-20T04:23:29.087Z,8.47
2023-05-20T04:25:56.073Z,9.43
2023-05-20T04:28:23.953Z,8.63
2023-05-20T04:31:05.112Z,9.13
2023-05-20T04:33:33.018Z,9.47
2023-05-20T04:36:01.430Z,9.27
2023-05-20T04:38:32.582Z,8.90
2023-05-20T04:41:00.321Z,8.63
2023-05-20T04:43:30.057Z,8.87
2023-05-20T04:45:57.909Z,8.43
2023-05-20T04:48:24.857Z,10.50
2023-05-20T04:50:55.001Z,10.63
2023-05-20T04:53:21.985Z,9.67
2023-05-20T04:55:55.109Z,8.90
2023-05-20T04:58:24.317Z,9.83
2023-05-20T05:00:52.396Z,9.13
2023-05-20T05:03:19.304Z,8.87
2023-05-20T05:05:46.219Z,9.47
2023-05-20T05:08:13.137Z,9.27
2023-05-20T05:10:40.543Z,9.90
2023-05-20T05:13:07.409Z,10.43
2023-05-20T05:15:34.443Z,9.30
2023-05-20T05:18:01.799Z,9.30
2023-05-20T05:20:28.712Z,9.30
2023-05-20T05:22:55.580Z,9.23
2023-05-20T05:25:22.437Z,9.97
2023-05-20T05:27:50.398Z,9.40
2023-05-20T05:30:17.405Z,9.43
2023-05-20T05:32:44.372Z,8.93
2023-05-20T05:35:11.385Z,9.23
2023-05-20T05:37:38.348Z,9.70
2023-05-20T05:40:08.179Z,9.23
2023-05-20T05:42:35.056Z,8.80
2023-05-20T05:45:01.970Z,8.90
2023-05-20T05:47:32.596Z,10.03
2023-05-20T05:50:00.098Z,9.43
2023-05-20T05:52:27.472Z,7.80
2023-05-20T05:54:55.517Z,9.00
2023-05-20T05:57:22.663Z,9.30
2023-05-20T05:59:49.529Z,8.93
2023-05-20T06:02:16.455Z,8.63
2023-05-20T06:04:43.455Z,8.27
2023-05-20T06:07:10.680Z,8.80
2023-05-20T06:09:39.163Z,8.70
2023-05-20T06:12:06.306Z,8.40
2023-05-20T06:14:33.281Z,8.07
2023-05-20T06:17:00.526Z,7.80
2023-05-20T06:19:27.496Z,8.03
2023-05-20T06:21:54.351Z,7.50
2023-05-20T06:24:22.412Z,7.03
2023-05-20T06:26:52.257Z,7.53
2023-05-20T06:29:19.225Z,7.70
2023-05-20T06:31:46.065Z,8.17
2023-05-20T06:34:13.039Z,8.37
2023-05-20T06:36:39.896Z,7.63
2023-05-20T06:39:12.180Z,7.97
2023-05-20T06:41:40.180Z,8.80
2023-05-20T06:44:08.137Z,10.73
2023-05-20T06:46:35.245Z,7.77
2023-05-20T06:49:03.116Z,7.87
2023-05-20T06:51:29.985Z,8.30
2023-05-20T06:53:56.864Z,7.93
2023-05-20T06:56:23.737Z,7.40
2023-05-20T06:58:50.633Z,7.80
2023-05-20T07:01:18.248Z,8.87
2023-05-20T07:03:45.554Z,7.53
2023-05-20T07:06:12.511Z,8.20
2023-05-20T07:08:39.336Z,7.00
2023-05-20T07:11:06.302Z,7.60
2023-05-20T07:13:33.129Z,7.20
2023-05-20T07:16:00.037Z,8.50
2023-05-20T07:18:26.976Z,9.33
2023-05-20T07:20:54.136Z,7.67
2023-05-20T07:23:20.954Z,8.40
2023-05-20T07:25:47.826Z,7.30
2023-05-20T07:28:16.833Z,6.70
2023-05-20T07:30:49.904Z,7.70
2023-05-20T07:33:17.674Z,6.93
2023-05-20T07:35:45.522Z,7.80
2023-05-20T07:38:13.146Z,10.07
2023-05-20T07:40:41.466Z,7.17
2023-05-20T07:43:09.215Z,8.23
2023-05-20T07:45:39.403Z,7.40
2023-05-20T07:48:08.673Z,7.13
2023-05-20T07:50:36.427Z,6.90
2023-05-20T07:53:03.296Z,7.07
2023-05-20T07:55:31.323Z,6.90
2023-05-20T07:57:58.212Z,6.60
2023-05-20T08:00:25.139Z,6.03
2023-05-20T08:02:52.265Z,6.27
2023-05-20T08:05:19.411Z,5.47
2023-05-20T08:07:46.431Z,6.40
2023-05-20T08:10:13.364Z,6.57
2023-05-20T08:12:40.289Z,6.80
2023-05-20T08:15:08.302Z,6.03
2023-05-20T08:17:35.456Z,6.20
2023-05-20T08:20:02.582Z,5.87
2023-05-20T08:22:29.455Z,5.90
2023-05-20T08:24:56.362Z,5.60
2023-05-20T08:27:23.295Z,5.80
2023-05-20T08:29:50.193Z,5.30
2023-05-20T08:32:17.051Z,5.73
2023-05-20T08:34:43.910Z,6.90
2023-05-20T08:37:10.854Z,5.73
2023-05-20T08:39:37.738Z,5.60
2023-05-20T08:42:06.957Z,5.90
2023-05-20T08:44:34.847Z,5.17
2023-05-20T08:47:03.924Z,4.90
2023-05-20T08:49:32.056Z,6.00
2023-05-20T08:52:01.365Z,5.50
2023-05-20T08:54:46.030Z,5.20
2023-05-20T08:57:14.090Z,5.23
2023-05-20T08:59:46.842Z,5.17
2023-05-20T09:02:14.561Z,5.37
2023-05-20T09:04:41.600Z,5.30
2023-05-20T09:07:09.072Z,5.10
2023-05-20T09:09:36.303Z,4.73
2023-05-20T09:12:04.204Z,4.90
2023-05-20T09:14:31.905Z,5.03
2023-05-20T09:16:59.430Z,7.63
2023-05-20T09:19:26.906Z,4.97
2023-05-20T09:21:55.200Z,5.10
2023-05-20T09:24:26.785Z,4.90
2023-05-20T09:26:54.001Z,4.90
2023-05-20T09:29:21.714Z,5.80
2023-05-20T09:31:50.225Z,7.33
2023-05-20T09:34:17.939Z,5.20
2023-05-20T09:36:45.589Z,4.87
2023-05-20T09:39:20.279Z,4.70
2023-05-20T09:41:58.381Z,5.50
2023-05-20T09:44:25.612Z,6.67
2023-05-20T09:46:53.341Z,6.87
2023-05-20T09:49:21.697Z,4.90
2023-05-20T09:51:50.836Z,4.50
2023-05-20T09:54:22.520Z,5.07
2023-05-20T09:56:50.821Z,5.33
2023-05-20T09:59:21.899Z,5.27
2023-05-20T10:01:48.870Z,7.93
2023-05-20T10:04:18.290Z,4.80
2023-05-20T10:07:04.039Z,5.77
2023-05-20T10:09:54.073Z,5.13
2023-05-20T10:13:00.419Z,4.70
2023-05-20T10:15:44.128Z,4.77
2023-05-20T10:18:42.505Z,4.70
2023-05-20T10:21:25.317Z,4.67
2023-05-20T10:23:52.463Z,7.77
2023-05-20T10:26:21.815Z,5.07
2023-05-20T10:28:49.604Z,4.67
2023-05-20T10:31:21.066Z,4.93
2023-05-20T10:33:49.522Z,5.50
2023-05-20T10:36:27.753Z,5.80
2023-05-20T10:38:58.744Z,5.37
2023-05-20T10:41:28.854Z,5.83
2023-05-20T10:44:03.493Z,6.37
2023-05-20T10:46:40.078Z,4.90
2023-05-20T10:49:25.042Z,4.60
2023-05-20T10:51:52.418Z,5.80
2023-05-20T10:54:19.335Z,4.53
2023-05-20T10:56:54.024Z,4.80
2023-05-20T10:59:22.067Z,4.80
2023-05-20T11:01:49.496Z,5.03
2023-05-20T11:04:17.432Z,5.93
2023-05-20T11:06:54.028Z,4.43
2023-05-20T11:09:21.433Z,4.13
2023-05-20T11:11:49.121Z,5.13
2023-05-20T11:14:18.022Z,4.57
2023-05-20T11:16:45.806Z,4.60
2023-05-20T11:19:16.943Z,5.00
2023-05-20T11:21:45.691Z,4.70
2023-05-20T11:24:13.743Z,4.30
2023-05-20T11:26:41.142Z,4.70
2023-05-20T11:29:08.305Z,4.70
2023-05-20T11:31:39.059Z,4.83
2023-05-20T11:34:06.124Z,4.63
2023-05-20T11:36:33.020Z,4.90
2023-05-20T11:39:00.953Z,4.80
2023-05-20T11:41:28.808Z,8.70
2023-05-20T11:44:00.929Z,4.87
2023-05-20T11:46:28.755Z,5.20
2023-05-20T11:48:56.966Z,5.10
2023-05-20T11:51:30.326Z,5.50
2023-05-20T11:54:07.320Z,5.03
2023-05-20T11:56:39.130Z,6.20
2023-05-20T11:59:08.296Z,5.40
2023-05-20T12:01:46.011Z,6.90
2023-05-20T12:04:14.878Z,5.40
2023-05-20T12:06:44.002Z,6.13
2023-05-20T12:09:11.257Z,5.40
2023-05-20T12:11:41.299Z,5.57
2023-05-20T12:14:09.369Z,5.73
2023-05-20T12:16:38.030Z,5.00
2023-05-20T12:19:05.417Z,7.70
2023-05-20T12:21:32.521Z,5.70
2023-05-20T12:24:00.141Z,5.70
2023-05-20T12:26:28.817Z,6.37
2023-05-20T12:28:56.097Z,7.13
2023-05-20T12:31:23.403Z,7.00
2023-05-20T12:33:50.683Z,6.23
2023-05-20T12:36:17.668Z,7.07
2023-05-20T12:38:44.551Z,6.53
2023-05-20T12:41:11.850Z,6.93
2023-05-20T12:43:38.756Z,6.70
2023-05-20T12:46:06.253Z,6.60
2023-05-20T12:48:33.190Z,6.63
2023-05-20T12:51:00.487Z,6.87
2023-05-20T12:53:27.444Z,6.63
2023-05-20T12:55:54.372Z,6.93
2023-05-20T12:58:21.263Z,7.27
2023-05-20T13:00:48.288Z,7.87
2023-05-20T13:03:15.400Z,7.40
2023-05-20T13:05:42.416Z,6.80
2023-05-20T13:08:10.151Z,7.13
2023-05-20T13:10:37.858Z,6.40
2023-05-20T13:13:05.056Z,7.40
2023-05-20T13:15:33.214Z,7.07
2023-05-20T13:18:01.459Z,7.27
2023-05-20T13:20:29.809Z,7.97
2023-05-20T13:22:56.659Z,7.07
2023-05-20T13:25:23.612Z,8.93
2023-05-20T13:27:50.870Z,7.40
2023-05-20T13:30:17.923Z,6.63
2023-05-20T13:32:44.840Z,7.30
2023-05-20T13:35:13.088Z,7.43
2023-05-20T13:37:39.992Z,7.40
2023-05-20T13:40:10.291Z,7.10
2023-05-20T13:42:37.468Z,7.83
2023-05-20T13:45:04.994Z,6.70
2023-05-20T13:47:32.196Z,9.93
2023-05-20T13:50:01.311Z,10.27
2023-05-20T13:52:29.634Z,8.67
2023-05-20T13:54:56.472Z,7.87
2023-05-20T13:57:23.510Z,8.70
2023-05-20T13:59:50.361Z,8.37
2023-05-20T14:02:17.377Z,7.97
2023-05-20T14:04:46.758Z,7.93
2023-05-20T14:07:14.000Z,7.10
2023-05-20T14:09:41.055Z,8.13
2023-05-20T14:12:08.033Z,6.63
2023-05-20T14:14:34.997Z,8.10
2023-05-20T14:17:01.859Z,8.50
2023-05-20T14:19:31.408Z,7.47
2023-05-20T14:22:01.414Z,11.67
2023-05-20T14:24:28.376Z,6.80
2023-05-20T14:26:55.288Z,7.70
2023-05-20T14:29:22.155Z,6.70
2023-05-20T14:31:49.045Z,9.33
2023-05-20T14:34:15.911Z,7.03
2023-05-20T14:36:43.792Z,7.60
2023-05-20T14:39:10.653Z,7.27
2023-05-20T14:41:37.525Z,8.53
2023-05-20T14:44:04.487Z,7.63
2023-05-20T14:46:31.530Z,8.07
2023-05-20T14:48:58.489Z,7.97
2023-05-20T14:51:25.402Z,8.33
2023-05-20T14:53:52.241Z,7.77
2023-05-20T14:56:19.074Z,7.73
2023-05-20T14:58:45.944Z,7.73
2023-05-20T15:01:12.913Z,8.10
2023-05-20T15:03:39.957Z,7.43
2023-05-20T15:06:07.037Z,7.47
2023-05-20T15:08:33.915Z,8.70
2023-05-20T15:11:01.142Z,8.00
2023-05-20T15:13:28.023Z,9.60
2023-05-20T15:15:54.908Z,9.60
2023-05-20T15:18:22.380Z,7.97
2023-05-20T15:20:49.299Z,7.70
2023-05-20T15:23:17.690Z,7.80
2023-05-20T15:25:44.553Z,8.13
2023-05-20T15:28:11.679Z,7.73
2023-05-20T15:30:38.587Z,7.77
2023-05-20T15:33:05.556Z,7.77
2023-05-20T15:35:32.549Z,8.03
2023-05-20T15:37:59.416Z,7.40
2023-05-20T15:40:26.280Z,7.53
2023-05-20T15:42:53.509Z,7.47
2023-05-20T15:45:20.647Z,6.97
2023-05-20T15:47:47.571Z,7.50
2023-05-20T15:50:14.469Z,7.30
2023-05-20T15:52:41.460Z,7.10
2023-05-20T15:55:09.524Z,7.53
2023-05-20T15:57:36.417Z,9.20
2023-05-20T16:00:06.281Z,7.47
2023-05-20T16:02:35.980Z,7.23
2023-05-20T16:05:04.089Z,8.37
2023-05-20T16:07:31.356Z,8.33
2023-05-20T16:09:58.274Z,7.57
2023-05-20T16:12:25.109Z,8.17
2023-05-20T16:14:52.008Z,9.10
2023-05-20T16:17:21.700Z,8.67
2023-05-20T16:19:49.468Z,7.30
2023-05-20T16:22:18.036Z,8.70
2023-05-20T16:24:45.818Z,7.70
2023-05-20T16:27:12.889Z,8.03
2023-05-20T16:29:39.835Z,9.80
2023-05-20T16:32:07.501Z,8.37
2023-05-20T16:34:34.588Z,7.30
2023-05-20T16:37:01.824Z,8.13
2023-05-20T16:39:28.721Z,8.20
2023-05-20T16:41:55.595Z,9.33
2023-05-20T16:44:22.498Z,8.00
2023-05-20T16:46:49.618Z,11.47
2023-05-20T16:49:17.276Z,7.50
2023-05-20T16:51:44.143Z,7.90
2023-05-20T16:54:11.367Z,7.80
2023-05-20T16:56:38.208Z,9.07
2023-05-20T16:59:05.130Z,8.20
2023-05-20T17:01:32.179Z,8.60
2023-05-20T17:03:59.102Z,8.07
2023-05-20T17:06:25.963Z,10.10
2023-05-20T17:08:52.864Z,8.53
2023-05-20T17:11:19.709Z,8.53
2023-05-20T17:13:46.576Z,8.40
2023-05-20T17:16:13.566Z,8.10
2023-05-20T17:18:40.560Z,7.90
2023-05-20T17:21:07.532Z,7.93
2023-05-20T17:23:34.390Z,7.77
2023-05-20T17:26:01.369Z,8.70
2023-05-20T17:28:28.264Z,7.97
2023-05-20T17:30:55.116Z,9.93
2023-05-20T17:33:22.104Z,8.17
2023-05-20T17:35:49.125Z,8.37
2023-05-20T17:38:16.018Z,8.57
2023-05-20T17:40:43.433Z,8.23
2023-05-20T17:43:10.353Z,9.60
2023-05-20T17:45:37.274Z,8.40
2023-05-20T17:48:08.774Z,10.87
2023-05-20T17:50:37.767Z,9.13
2023-05-20T17:53:04.645Z,8.97
2023-05-20T17:55:32.832Z,10.23
2023-05-20T17:58:01.780Z,10.80
2023-05-20T18:00:28.770Z,10.40
2023-05-20T18:02:58.519Z,9.07
2023-05-20T18:05:25.790Z,9.70
2023-05-20T18:07:52.850Z,9.07
2023-05-20T18:10:19.802Z,9.93
2023-05-20T18:12:46.618Z,9.63
2023-05-20T18:15:14.091Z,10.73
2023-05-20T18:17:41.216Z,10.37
2023-05-20T18:20:09.688Z,10.07
2023-05-20T18:22:36.589Z,9.93
2023-05-20T18:25:03.673Z,9.67
2023-05-20T18:27:31.813Z,9.70
2023-05-20T18:29:58.711Z,9.80
2023-05-20T18:32:28.373Z,10.90
2023-05-20T18:34:55.422Z,9.77
2023-05-20T18:37:22.280Z,9.63
2023-05-20T18:39:49.252Z,10.27
2023-05-20T18:42:17.141Z,10.97
2023-05-20T18:44:44.047Z,10.70
2023-05-20T18:47:11.162Z,10.30
2023-05-20T18:49:38.014Z,12.43
2023-05-20T18:52:05.332Z,10.77
2023-05-20T18:54:32.192Z,10.77
2023-05-20T18:56:59.170Z,10.80
2023-05-20T18:59:26.026Z,11.60
2023-05-20T19:01:52.865Z,10.87
2023-05-20T19:04:19.732Z,12.17
2023-05-20T19:06:48.025Z,11.07
2023-05-20T19:09:14.937Z,11.27
2023-05-20T19:11:41.761Z,11.20
2023-05-20T19:14:08.595Z,10.03
2023-05-20T19:16:35.737Z,11.20
2023-05-20T19:19:02.674Z,10.77
2023-05-20T19:21:31.281Z,11.50
2023-05-20T19:23:58.409Z,10.93
2023-05-20T19:26:26.423Z,12.57
2023-05-20T19:28:53.329Z,11.83
2023-05-20T19:31:22.927Z,11.33
2023-05-20T19:33:52.660Z,11.50
2023-05-20T19:36:19.735Z,11.93
2023-05-20T19:38:46.875Z,11.77
2023-05-20T19:41:14.245Z,12.17
2023-05-20T19:43:41.127Z,10.73
2023-05-20T19:46:08.108Z,11.63
2023-05-20T19:48:35.064Z,12.00
2023-05-20T19:51:02.513Z,11.07
2023-05-20T19:53:29.371Z,11.43
2023-05-20T19:55:56.240Z,12.77
2023-05-20T19:58:23.248Z,11.80
2023-05-20T20:00:50.112Z,12.23
2023-05-20T20:03:17.032Z,11.17
2023-05-20T20:05:43.968Z,11.57
2023-05-20T20:08:10.817Z,11.17
2023-05-20T20:10:37.833Z,11.83
2023-05-20T20:13:04.697Z,12.97
2023-05-20T20:15:32.081Z,11.27
2023-05-20T20:17:59.398Z,12.00
2023-05-20T20:20:26.894Z,11.70
2023-05-20T20:22:53.899Z,12.07
2023-05-20T20:25:20.975Z,11.17
2023-05-20T20:27:48.609Z,11.43
2023-05-20T20:30:15.653Z,12.43
2023-05-20T20:32:42.797Z,11.50
2023-05-20T20:35:10.775Z,11.77
2023-05-20T20:37:38.381Z,13.13
2023-05-20T20:40:08.063Z,12.83
2023-05-20T20:42:34.967Z,12.63
2023-05-20T20:45:02.294Z,11.70
2023-05-20T20:47:29.319Z,14.03
2023-05-20T20:49:56.750Z,14.70
2023-05-20T20:52:23.677Z,13.13
2023-05-20T20:54:50.511Z,12.07
2023-05-20T20:57:17.523Z,12.27
2023-05-20T20:59:47.857Z,13.30
2023-05-20T21:02:15.518Z,14.33
2023-05-20T21:04:43.086Z,13.53
2023-05-20T21:07:10.154Z,13.50
2023-05-20T21:09:36.999Z,13.03
2023-05-20T21:12:06.536Z,12.50
2023-05-20T21:14:33.471Z,12.23
2023-05-20T21:17:00.619Z,13.77
2023-05-20T21:19:27.759Z,13.13
2023-05-20T21:21:54.812Z,12.87
2023-05-20T21:24:21.717Z,13.93
2023-05-20T21:26:48.564Z,12.40
2023-05-20T21:29:15.436Z,12.87
2023-05-20T21:31:42.403Z,13.73
2023-05-20T21:34:09.252Z,12.87
2023-05-20T21:36:36.301Z,12.43
2023-05-20T21:39:03.605Z,11.93
2023-05-20T21:41:30.469Z,12.80
2023-05-20T21:43:57.306Z,13.27
2023-05-20T21:46:24.179Z,13.13
2023-05-20T21:48:51.097Z,12.37
2023-05-20T21:51:17.937Z,14.13
2023-05-20T21:53:45.885Z,12.97
2023-05-20T21:56:12.788Z,12.83
2023-05-20T21:58:41.608Z,12.33
2023-05-20T22:01:09.758Z,12.57
2023-05-20T22:03:37.163Z,11.43
2023-05-20T22:06:05.079Z,12.50
2023-05-20T22:08:35.030Z,12.10
2023-05-20T22:11:07.469Z,11.37
2023-05-20T22:13:35.757Z,11.70
2023-05-20T22:16:04.908Z,13.63
2023-05-20T22:18:32.130Z,12.63
2023-05-20T22:21:01.839Z,12.83
2023-05-20T22:23:29.248Z,12.40
2023-05-20T22:25:56.741Z,12.03
2023-05-20T22:28:23.765Z,12.47
2023-05-20T22:30:51.507Z,13.17
2023-05-20T22:33:18.462Z,12.60
2023-05-20T22:35:45.305Z,12.37
2023-05-20T22:38:12.130Z,12.07
2023-05-20T22:40:39.326Z,12.13
2023-05-20T22:43:06.300Z,11.93
2023-05-20T22:45:33.218Z,11.47
2023-05-20T22:48:00.224Z,11.93
2023-05-20T22:50:27.683Z,12.00
2023-05-20T22:52:54.858Z,11.77
2023-05-20T22:55:23.254Z,11.67
2023-05-20T22:57:50.127Z,11.60
2023-05-20T23:00:18.066Z,12.90
2023-05-20T23:02:49.605Z,12.83
2023-05-20T23:05:16.798Z,11.63
2023-05-20T23:07:44.779Z,12.13
2023-05-20T23:10:11.807Z,10.90
2023-05-20T23:12:38.721Z,11.17
2023-05-20T23:15:06.668Z,11.63
2023-05-20T23:17:33.516Z,11.43
2023-05-20T23:20:00.507Z,11.37
2023-05-20T23:22:27.557Z,10.53
2023-05-20T23:24:54.433Z,11.70
2023-05-20T23:27:21.328Z,10.80
2023-05-20T23:29:48.170Z,11.67
2023-05-20T23:32:15.092Z,10.23
2023-05-20T23:34:43.467Z,10.67
2023-05-20T23:37:10.378Z,10.63
2023-05-20T23:39:37.256Z,10.30
2023-05-20T23:42:05.054Z,10.80
2023-05-20T23:44:31.961Z,10.77
2023-05-20T23:46:58.809Z,10.63
2023-05-20T23:49:26.942Z,10.97
2023-05-20T23:51:54.002Z,10.47
2023-05-20T23:54:21.025Z,10.80
2023-05-20T23:56:48.789Z,9.87
2023-05-20T23:59:15.999Z,10.80
